Time;durP1;ratioP1;P1;durP2;ratioP2;P2;SDS_P1;SDS_P2;PMS_P1;PMS_P2;Temp;Humidity;BMP_temperature;BMP_pressure;BME280_temperature;BME280_humidity;BME280_pressure;Samples;Min_cycle;Max_cycle;Signal;HPM_P1;HPM_P2
2022/08/10 00:00:27;;;;;;;1999.90;999.90;;;15.30;82.80;;;;;;4969285;28;20042;-88
2022/08/10 00:03:00;;;;;;;1999.90;999.90;;;15.30;83.40;;;;;;4951519;28;20031;-87
2022/08/10 00:05:26;;;;;;;1999.90;999.90;;;15.20;83.30;;;;;;4953398;28;20390;-88
2022/08/10 00:07:53;;;;;;;1999.90;999.90;;;15.20;83.90;;;;;;4968031;28;20037;-89
2022/08/10 00:10:22;;;;;;;1999.90;999.90;;;15.10;84.10;;;;;;4968066;28;20085;-88
2022/08/10 00:12:48;;;;;;;1999.90;999.90;;;15.10;84.40;;;;;;4953115;28;20042;-88
2022/08/10 00:15:16;;;;;;;1999.90;999.90;;;15.10;84.60;;;;;;4967659;28;20063;-88
2022/08/10 00:17:41;;;;;;;1999.90;999.90;;;15.00;85.90;;;;;;4970661;28;20026;-90
2022/08/10 00:20:08;;;;;;;1999.90;999.90;;;14.90;86.50;;;;;;4953199;28;20043;-90
2022/08/10 00:22:34;;;;;;;1999.90;999.90;;;14.90;87.00;;;;;;4967523;28;20155;-88
2022/08/10 00:25:00;;;;;;;1999.90;999.90;;;14.90;86.40;;;;;;4970722;28;20118;-88
2022/08/10 00:27:27;;;;;;;1999.90;999.90;;;14.80;87.20;;;;;;4953658;28;20106;-90
2022/08/10 00:29:53;;;;;;;1999.90;999.90;;;14.80;87.30;;;;;;4957873;28;20027;-89
2022/08/10 00:32:18;;;;;;;1999.90;999.90;;;14.70;88.00;;;;;;4935616;29;20074;-88
2022/08/10 00:34:44;;;;;;;1999.90;999.90;;;14.70;87.80;;;;;;4948948;29;20024;-90
2022/08/10 00:37:14;;;;;;;1999.90;999.90;;;14.70;87.60;;;;;;4950496;29;20059;-88
2022/08/10 00:39:40;;;;;;;1999.90;999.90;;;14.70;88.00;;;;;;4948229;29;20518;-87
2022/08/10 00:42:07;;;;;;;1999.90;999.90;;;14.60;88.90;;;;;;4917903;29;20035;-87
2022/08/10 00:44:35;;;;;;;1999.90;999.90;;;14.60;89.20;;;;;;4921271;29;20027;-88
2022/08/10 00:47:01;;;;;;;1999.90;999.90;;;14.60;89.50;;;;;;4933041;29;20447;-89
2022/08/10 00:49:27;;;;;;;1999.90;999.90;;;14.60;89.60;;;;;;4933531;29;20026;-89
2022/08/10 00:51:53;;;;;;;1999.90;999.90;;;14.50;90.40;;;;;;4933558;29;20040;-88
2022/08/10 00:54:19;;;;;;;1999.90;999.90;;;14.50;90.00;;;;;;4933852;29;20517;-88
2022/08/10 00:56:45;;;;;;;1999.90;999.90;;;14.50;90.00;;;;;;4933493;29;20578;-88
2022/08/10 00:59:11;;;;;;;1999.90;999.90;;;14.50;90.30;;;;;;4917181;29;20071;-90
2022/08/10 01:01:37;;;;;;;1999.90;999.90;;;14.50;90.20;;;;;;4943950;28;20043;-88
2022/08/10 01:04:03;;;;;;;1999.90;999.90;;;14.40;90.30;;;;;;4952306;28;20429;-88
2022/08/10 01:06:42;;;;;;;1999.90;999.90;;;14.40;90.20;;;;;;4952763;28;20111;-88
2022/08/10 01:09:14;;;;;;;1999.90;999.90;;;14.40;90.40;;;;;;4969323;28;20031;-89
2022/08/10 01:11:50;;;;;;;1999.90;999.90;;;14.40;90.40;;;;;;4952599;28;20027;-89
2022/08/10 01:14:30;;;;;;;1999.90;999.90;;;14.40;90.60;;;;;;4967727;28;20740;-88
2022/08/10 01:17:02;;;;;;;1999.90;999.90;;;14.30;90.70;;;;;;4967570;28;20045;-89
2022/08/10 01:19:47;;;;;;;1999.90;999.90;;;14.30;91.00;;;;;;4966654;28;20027;-88
2022/08/10 01:22:35;;;;;;;1999.90;999.90;;;14.30;90.80;;;;;;4963314;28;20023;-88
2022/08/10 01:25:10;;;;;;;1999.90;999.90;;;14.20;91.40;;;;;;4969474;28;20077;-89
2022/08/10 01:27:48;;;;;;;1999.90;999.90;;;14.20;91.20;;;;;;4954124;28;20026;-87
2022/08/10 01:30:15;;;;;;;1999.90;999.90;;;14.10;91.70;;;;;;4966559;28;20042;-88
2022/08/10 01:32:49;;;;;;;1999.90;999.90;;;14.20;91.20;;;;;;4936895;28;20110;-88
2022/08/10 01:35:20;;;;;;;1999.90;999.90;;;14.20;91.40;;;;;;4971044;28;20111;-89
2022/08/10 01:37:54;;;;;;;1999.90;999.90;;;14.20;91.80;;;;;;4951265;28;20560;-90
2022/08/10 01:40:24;;;;;;;1999.90;999.90;;;14.10;91.20;;;;;;4968273;28;20110;-88
2022/08/10 01:42:53;;;;;;;1999.90;999.90;;;14.10;91.40;;;;;;4966733;28;20078;-88
2022/08/10 01:45:21;;;;;;;1999.90;999.90;;;14.00;91.80;;;;;;4969597;28;20039;-89
2022/08/10 01:50:39;;;;;;;1999.90;999.90;;;14.00;91.90;;;;;;4955439;28;20101;-89
2022/08/10 01:53:50;;;;;;;1999.90;999.90;;;14.00;92.10;;;;;;4953070;28;20042;-90
2022/08/10 01:56:18;;;;;;;1999.90;999.90;;;13.80;92.40;;;;;;4952532;28;20116;-90
2022/08/10 01:58:48;;;;;;;1999.90;999.90;;;13.90;92.50;;;;;;4950385;28;20054;-89
2022/08/10 02:01:15;;;;;;;;;;;13.90;92.50;;;;;;4949278;28;20083;-88
2022/08/10 02:03:43;;;;;;;1999.90;999.90;;;13.90;92.50;;;;;;4950465;29;19918;-89
2022/08/10 02:06:13;;;;;;;1999.90;999.90;;;13.80;93.00;;;;;;4946493;29;20057;-89
2022/08/10 02:08:41;;;;;;;1999.90;999.90;;;13.80;93.00;;;;;;4953734;28;20045;-89
2022/08/10 02:11:09;;;;;;;1999.90;999.90;;;13.80;93.20;;;;;;4948987;29;20058;-89
2022/08/10 02:13:37;;;;;;;1999.90;999.90;;;13.70;93.40;;;;;;4964660;28;20035;-92
2022/08/10 02:16:05;;;;;;;1999.90;999.90;;;13.70;93.60;;;;;;4950049;29;20118;-90
2022/08/10 02:18:32;;;;;;;1999.90;999.90;;;13.70;93.60;;;;;;4949242;29;20035;-89
2022/08/10 02:21:03;;;;;;;1999.90;999.90;;;13.60;94.00;;;;;;4947466;29;20058;-89
2022/08/10 02:23:30;;;;;;;;;;;13.60;94.00;;;;;;4951124;29;20023;-89
2022/08/10 02:25:58;;;;;;;1999.90;999.90;;;13.60;94.30;;;;;;4949127;29;19910;-90
2022/08/10 02:28:27;;;;;;;1999.90;999.90;;;13.50;94.70;;;;;;4948364;29;20093;-89
2022/08/10 02:30:54;;;;;;;1999.90;999.90;;;13.50;94.70;;;;;;4948396;29;20058;-89
2022/08/10 02:33:23;;;;;;;1999.90;999.90;;;13.40;95.10;;;;;;4948478;28;20027;-89
2022/08/10 02:35:52;;;;;;;1999.90;999.90;;;13.50;95.10;;;;;;4962959;28;20054;-91
2022/08/10 02:38:24;;;;;;;1999.90;999.90;;;13.40;95.00;;;;;;4957053;28;20027;-89
2022/08/10 02:40:55;;;;;;;1999.90;999.90;;;13.40;95.20;;;;;;4951176;28;20053;-88
2022/08/10 02:43:32;;;;;;;1999.90;999.90;;;13.40;95.30;;;;;;4944708;29;20019;-89
2022/08/10 02:46:11;;;;;;;1999.90;999.90;;;13.40;95.40;;;;;;4957274;28;20539;-89
2022/08/10 02:48:44;;;;;;;1999.90;999.90;;;13.30;95.50;;;;;;4948456;29;20611;-90
2022/08/10 02:51:18;;;;;;;1999.90;999.90;;;13.30;95.60;;;;;;4949136;28;20494;-89
2022/08/10 02:53:51;;;;;;;1999.90;999.90;;;13.30;95.60;;;;;;4949370;29;20020;-89
2022/08/10 02:56:20;;;;;;;1999.90;999.90;;;13.30;96.00;;;;;;4950511;28;20487;-90
2022/08/10 02:58:57;;;;;;;1999.90;999.90;;;13.20;96.40;;;;;;4950556;28;20113;-89
2022/08/10 03:01:29;;;;;;;1999.90;999.90;;;13.30;96.30;;;;;;4967322;28;20038;-89
2022/08/10 03:04:03;;;;;;;1999.90;999.90;;;13.30;96.00;;;;;;4970311;28;20030;-90
2022/08/10 03:06:42;;;;;;;1999.90;999.90;;;13.20;96.20;;;;;;4955013;28;20038;-87
2022/08/10 03:09:12;;;;;;;1999.90;999.90;;;13.20;96.60;;;;;;4950975;28;20109;-89
2022/08/10 03:11:39;;;;;;;1999.90;999.90;;;13.20;96.60;;;;;;4952820;28;20031;-89
2022/08/10 03:14:07;;;;;;;1999.90;999.90;;;13.10;96.80;;;;;;4961618;28;20537;-89
2022/08/10 03:16:34;;;;;;;1999.90;999.90;;;13.10;97.00;;;;;;4970546;28;20073;-87
2022/08/10 03:19:03;;;;;;;1999.90;999.90;;;13.10;97.30;;;;;;4969015;28;20486;-89
2022/08/10 03:21:29;;;;;;;1999.90;999.90;;;13.00;97.40;;;;;;4969669;28;20034;-89
2022/08/10 03:24:00;;;;;;;1999.90;999.90;;;13.10;97.20;;;;;;4967324;28;20035;-90
2022/08/10 03:26:26;;;;;;;1999.90;999.90;;;13.00;97.50;;;;;;4965441;28;20027;-88
2022/08/10 03:28:53;;;;;;;1999.90;999.90;;;13.00;97.80;;;;;;4952554;28;20031;-89
2022/08/10 03:31:19;;;;;;;1999.90;999.90;;;13.00;97.90;;;;;;4943117;29;20055;-90
2022/08/10 03:33:45;;;;;;;1999.90;999.90;;;13.00;97.70;;;;;;4964878;28;20019;-89
2022/08/10 03:36:11;;;;;;;1999.90;999.90;;;13.00;97.80;;;;;;4949821;28;20035;-89
2022/08/10 03:38:39;;;;;;;1999.90;999.90;;;13.00;98.00;;;;;;4933128;29;20031;-91
2022/08/10 03:41:10;;;;;;;1999.90;999.90;;;12.80;98.20;;;;;;4949790;28;20293;-91
2022/08/10 03:43:37;;;;;;;1999.90;999.90;;;12.80;98.40;;;;;;4939105;29;20494;-89
2022/08/10 03:46:07;;;;;;;1999.90;999.90;;;12.80;98.30;;;;;;4951922;28;20042;-90
2022/08/10 03:48:33;;;;;;;1999.90;999.90;;;12.70;98.90;;;;;;4936081;29;20051;-90
2022/08/10 03:51:01;;;;;;;1999.90;999.90;;;12.80;99.40;;;;;;4954623;29;20042;-90
2022/08/10 03:53:27;;;;;;;1999.90;999.90;;;12.80;99.10;;;;;;4935618;29;20432;-89
2022/08/10 03:55:53;;;;;;;1999.90;999.90;;;12.80;98.70;;;;;;4933944;29;20047;-90
2022/08/10 03:58:19;;;;;;;1999.90;999.90;;;12.80;99.00;;;;;;4950378;29;20043;-90
2022/08/10 04:00:49;;;;;;;1999.90;999.90;;;12.80;98.80;;;;;;4952509;29;21020;-89
2022/08/10 04:03:16;;;;;;;1999.90;999.90;;;12.70;99.40;;;;;;4954899;29;20121;-90
2022/08/10 04:05:42;;;;;;;1999.90;999.90;;;12.90;98.70;;;;;;4955012;29;20114;-90
2022/08/10 04:08:08;;;;;;;1999.90;999.90;;;12.80;98.70;;;;;;4934180;29;20047;-89
2022/08/10 04:10:34;;;;;;;1999.90;999.90;;;12.80;99.00;;;;;;4935374;29;20023;-89
2022/08/10 04:13:00;;;;;;;1999.90;999.90;;;12.80;99.10;;;;;;4935606;29;20038;-89
2022/08/10 04:15:25;;;;;;;1999.90;999.90;;;12.80;98.80;;;;;;4951910;29;20038;-89
2022/08/10 04:17:51;;;;;;;1999.90;999.90;;;12.90;98.60;;;;;;4935658;29;20031;-89
2022/08/10 04:20:41;;;;;;;1999.90;999.90;;;12.90;99.00;;;;;;4919747;29;20592;-89
2022/08/10 04:23:10;;;;;;;1999.90;999.90;;;12.90;99.10;;;;;;4952309;29;20043;-88
2022/08/10 04:25:38;;;;;;;1999.90;999.90;;;12.90;98.70;;;;;;4951866;28;20031;-88
2022/08/10 04:28:05;;;;;;;1999.90;999.90;;;13.00;98.90;;;;;;4922237;29;20633;-91
2022/08/10 04:30:33;;;;;;;1999.90;999.90;;;13.00;98.90;;;;;;4951926;28;20043;-90
2022/08/10 04:33:02;;;;;;;1999.90;999.90;;;12.90;98.70;;;;;;4954755;28;20054;-89
2022/08/10 04:35:30;;;;;;;1999.90;999.90;;;12.90;99.00;;;;;;4954749;28;20043;-90
2022/08/10 04:37:57;;;;;;;1999.90;999.90;;;12.90;99.10;;;;;;4953993;28;20039;-88
2022/08/10 04:40:23;;;;;;;1999.90;999.90;;;12.90;99.00;;;;;;4970210;28;20034;-89
2022/08/10 04:42:49;;;;;;;1999.90;999.90;;;12.90;99.00;;;;;;4970487;28;20023;-90
2022/08/10 04:45:15;;;;;;;1999.90;999.90;;;12.90;99.00;;;;;;4953929;28;20030;-90
2022/08/10 04:47:41;;;;;;;1999.90;999.90;;;12.90;98.90;;;;;;4970906;28;20058;-89
2022/08/10 04:50:07;;;;;;;1999.90;999.90;;;13.00;99.00;;;;;;4969883;28;20042;-90
2022/08/10 04:52:33;;;;;;;1999.90;999.90;;;13.10;98.40;;;;;;4970465;28;20442;-91
2022/08/10 04:54:58;;;;;;;1999.90;999.90;;;13.10;98.10;;;;;;4969062;28;20113;-89
2022/08/10 04:57:24;;;;;;;1999.90;999.90;;;13.20;98.80;;;;;;4968248;28;20038;-90
2022/08/10 04:59:50;;;;;;;1999.90;999.90;;;13.20;98.30;;;;;;4965760;28;20117;-89
2022/08/10 05:02:16;;;;;;;1999.90;999.90;;;13.30;98.00;;;;;;4933904;28;20047;-89
2022/08/10 05:04:41;;;;;;;1999.90;999.90;;;13.30;97.60;;;;;;4960852;28;20030;-89
2022/08/10 05:07:09;;;;;;;1999.90;999.90;;;13.40;97.20;;;;;;4951308;28;20039;-87
2022/08/10 05:09:38;;;;;;;1999.90;999.90;;;13.50;97.90;;;;;;4938434;28;20540;-88
2022/08/10 05:12:05;;;;;;;1999.90;999.90;;;13.60;96.50;;;;;;4938850;28;20576;-91
2022/08/10 05:14:31;;;;;;;1999.90;999.90;;;13.50;96.70;;;;;;4953705;28;20034;-88
2022/08/10 05:16:56;;;;;;;1999.90;999.90;;;13.60;96.20;;;;;;4950684;28;20414;-88
2022/08/10 05:19:22;;;;;;;1999.90;999.90;;;13.70;95.60;;;;;;4953097;28;20073;-87
2022/08/10 05:21:48;;;;;;;1999.90;999.90;;;13.80;95.50;;;;;;4969996;28;20023;-88
2022/08/10 05:24:13;;;;;;;1999.90;999.90;;;13.90;95.20;;;;;;4943423;28;20031;-86
2022/08/10 05:26:39;;;;;;;1999.90;999.90;;;13.90;95.50;;;;;;4950736;28;20031;-86
2022/08/10 05:29:05;;;;;;;1999.90;999.90;;;14.00;95.00;;;;;;4948089;28;20034;-84
2022/08/10 05:31:31;;;;;;;1999.90;999.90;;;14.00;94.50;;;;;;4966343;28;20034;-85
2022/08/10 05:33:56;;;;;;;1999.90;999.90;;;14.10;94.40;;;;;;4965668;28;20030;-84
2022/08/10 05:36:23;;;;;;;1999.90;999.90;;;14.10;93.90;;;;;;4967138;28;20482;-84
2022/08/10 05:38:48;;;;;;;1999.90;999.90;;;14.20;94.00;;;;;;4962952;28;20034;-84
2022/08/10 05:41:15;;;;;;;1999.90;999.90;;;14.30;93.10;;;;;;4963077;28;20126;-84
2022/08/10 05:43:42;;;;;;;1999.90;999.90;;;14.40;93.90;;;;;;4963251;28;20054;-84
2022/08/10 05:46:08;;;;;;;1999.90;999.90;;;14.50;93.10;;;;;;4962809;28;20415;-85
2022/08/10 05:48:35;;;;;;;1999.90;999.90;;;14.60;92.50;;;;;;4950036;28;20035;-83
2022/08/10 05:51:01;;;;;;;1999.90;999.90;;;14.60;92.50;;;;;;4965607;28;20375;-88
2022/08/10 05:53:27;;;;;;;1999.90;999.90;;;14.70;91.90;;;;;;4948095;28;20538;-84
2022/08/10 05:55:54;;;;;;;1999.90;999.90;;;14.60;92.30;;;;;;4966642;28;20131;-84
2022/08/10 05:58:19;;;;;;;1999.90;999.90;;;14.70;92.80;;;;;;4965509;28;20065;-84
2022/08/10 06:00:52;;;;;;;1999.90;999.90;;;14.80;92.10;;;;;;4965790;28;20039;-84
2022/08/10 06:03:25;;;;;;;1999.90;999.90;;;14.90;91.50;;;;;;4950602;28;20034;-84
2022/08/10 06:05:54;;;;;;;1999.90;999.90;;;14.90;91.80;;;;;;4949770;28;20039;-83
2022/08/10 06:08:23;;;;;;;1999.90;999.90;;;15.00;91.20;;;;;;4948767;28;20027;-84
2022/08/10 06:10:54;;;;;;;1999.90;999.90;;;15.10;91.50;;;;;;4967262;28;20042;-85
2022/08/10 06:16:10;;;;;;;1999.90;999.90;;;15.20;91.10;;;;;;4951618;28;20049;-85
2022/08/10 06:18:36;;;;;;;1999.90;999.90;;;15.30;90.90;;;;;;4966595;28;20042;-84
2022/08/10 06:21:03;;;;;;;1999.90;999.90;;;15.40;90.20;;;;;;4948165;28;20039;-84
2022/08/10 06:23:30;;;;;;;1999.90;999.90;;;15.50;90.70;;;;;;4965896;28;20723;-83
2022/08/10 06:25:58;;;;;;;1999.90;999.90;;;15.60;90.60;;;;;;4964822;28;20027;-84
2022/08/10 06:28:27;;;;;;;1999.90;999.90;;;15.70;90.40;;;;;;4950208;28;20050;-84
2022/08/10 06:30:53;;;;;;;1999.90;999.90;;;15.70;89.70;;;;;;4965170;28;20034;-84
2022/08/10 06:33:22;;;;;;;1999.90;999.90;;;15.80;90.20;;;;;;4966002;28;20554;-84
2022/08/10 06:35:52;;;;;;;1999.90;999.90;;;15.90;90.30;;;;;;4948239;28;20189;-83
2022/08/10 06:38:20;;;;;;;1999.90;999.90;;;16.10;90.10;;;;;;4946068;28;20089;-84
2022/08/10 06:40:47;;;;;;;1999.90;999.90;;;16.20;88.90;;;;;;4949843;28;20050;-83
2022/08/10 06:43:18;;;;;;;1999.90;999.90;;;16.40;89.30;;;;;;4964483;28;20054;-86
2022/08/10 06:45:54;;;;;;;1999.90;999.90;;;16.50;87.60;;;;;;4948578;28;20556;-84
2022/08/10 06:48:26;;;;;;;1999.90;999.90;;;16.60;86.90;;;;;;4969592;28;20102;-83
2022/08/10 06:50:57;;;;;;;1999.90;999.90;;;16.60;85.30;;;;;;4950941;28;20383;-83
2022/08/10 06:53:29;;;;;;;1999.90;999.90;;;16.80;84.60;;;;;;4966414;28;20461;-83
2022/08/10 06:56:01;;;;;;;1999.90;999.90;;;16.90;84.80;;;;;;4966125;28;20061;-84
2022/08/10 06:58:40;;;;;;;1999.90;999.90;;;17.00;84.20;;;;;;4946948;28;20118;-84
2022/08/10 07:01:07;;;;;;;1999.90;999.90;;;17.00;83.20;;;;;;4941505;29;20091;-85
2022/08/10 07:03:39;;;;;;;1999.90;999.90;;;17.20;82.80;;;;;;4962404;28;20038;-84
2022/08/10 07:06:06;;;;;;;1999.90;999.90;;;17.30;81.10;;;;;;4930067;29;20351;-84
2022/08/10 07:08:35;;;;;;;1579.00;820.40;;;17.50;80.20;;;;;;4945078;29;20077;-84
2022/08/10 07:11:02;;;;;;;1999.90;999.90;;;17.50;77.20;;;;;;4913806;29;20043;-83
2022/08/10 07:13:29;;;;;;;1999.90;999.90;;;17.70;77.80;;;;;;4930548;29;20031;-83
2022/08/10 07:15:56;;;;;;;1999.90;999.90;;;17.80;78.20;;;;;;4947989;29;20186;-84
2022/08/10 07:18:24;;;;;;;1999.90;999.90;;;17.80;77.00;;;;;;4931000;29;20054;-83
2022/08/10 07:20:51;;;;;;;1999.90;999.90;;;18.00;75.80;;;;;;4917703;29;20046;-84
2022/08/10 07:23:18;;;;;;;1999.90;999.90;;;18.00;77.20;;;;;;4950279;29;20071;-83
2022/08/10 07:25:45;;;;;;;1999.90;999.90;;;18.30;76.50;;;;;;4933406;29;20585;-84
2022/08/10 07:28:13;;;;;;;1999.90;999.90;;;18.40;75.60;;;;;;4949081;29;20027;-83
2022/08/10 07:30:40;;;;;;;1999.90;999.90;;;18.60;75.20;;;;;;4936343;28;20035;-83
2022/08/10 07:33:07;;;;;;;1999.90;999.90;;;18.60;73.50;;;;;;4950302;28;20047;-84
2022/08/10 07:35:35;;;;;;;969.42;873.42;;;18.70;73.30;;;;;;4968775;28;20157;-83
2022/08/10 07:38:05;;;;;;;1286.03;915.70;;;18.80;71.60;;;;;;4950900;28;20046;-85
2022/08/10 07:40:32;;;;;;;1646.87;951.90;;;18.80;71.80;;;;;;4969640;28;20035;-84
2022/08/10 07:42:59;;;;;;;1095.05;977.90;;;19.00;71.60;;;;;;4967711;28;20026;-83
2022/08/10 07:45:32;;;;;;;1104.22;988.38;;;19.10;69.80;;;;;;4969038;28;20019;-83
2022/08/10 07:48:10;;;;;;;1280.78;950.90;;;19.00;70.00;;;;;;4966613;28;20038;-83
2022/08/10 07:50:39;;;;;;;1019.45;915.05;;;19.10;69.10;;;;;;4953280;28;20039;-83
2022/08/10 07:53:08;;;;;;;1999.90;999.90;;;19.20;69.10;;;;;;4950025;28;20085;-84
2022/08/10 07:55:37;;;;;;;1188.45;999.90;;;19.40;70.00;;;;;;4961548;28;20051;-84
2022/08/10 07:58:04;;;;;;;1260.15;889.92;;;19.40;67.30;;;;;;4958620;28;20054;-84
2022/08/10 08:00:31;;;;;;;1243.40;885.15;;;19.70;70.50;;;;;;4948872;28;20063;-84
2022/08/10 08:03:00;;;;;;;1137.15;994.05;;;19.70;65.80;;;;;;4966691;28;20486;-83
2022/08/10 08:05:27;;;;;;;1068.93;959.55;;;19.70;67.20;;;;;;4949515;28;20030;-83
2022/08/10 08:07:56;;;;;;;979.60;882.00;;;20.00;65.20;;;;;;4963349;28;20050;-84
2022/08/10 08:10:25;;;;;;;1085.25;968.03;;;20.10;63.50;;;;;;4967564;28;20019;-84
2022/08/10 08:12:52;;;;;;;926.63;853.47;;;20.30;62.40;;;;;;4965136;28;20062;-84
2022/08/10 08:15:20;;;;;;;1057.07;954.20;;;20.40;60.60;;;;;;4966296;28;20049;-84
2022/08/10 08:17:48;;;;;;;1088.05;977.33;;;20.50;61.30;;;;;;4935117;28;20520;-84
2022/08/10 08:20:16;;;;;;;1221.10;999.90;;;20.70;61.20;;;;;;4952198;28;20663;-84
2022/08/10 08:22:43;;;;;;;1237.53;999.90;;;20.90;61.30;;;;;;4967971;28;20106;-84
2022/08/10 08:25:11;;;;;;;1242.88;936.88;;;21.10;59.20;;;;;;4949845;28;20078;-84
2022/08/10 08:27:39;;;;;;;1015.35;914.35;;;21.20;58.90;;;;;;4968352;28;20109;-84
2022/08/10 08:30:07;;;;;;;1048.88;944.38;;;21.30;55.50;;;;;;4969135;28;20062;-84
2022/08/10 08:32:36;;;;;;;1023.60;931.83;;;21.30;56.50;;;;;;4965859;28;20145;-84
2022/08/10 08:35:08;;;;;;;982.33;889.42;;;21.50;56.20;;;;;;4950373;28;20039;-84
2022/08/10 08:37:36;;;;;;;977.53;874.30;;;21.80;55.90;;;;;;4951739;28;20073;-84
2022/08/10 08:40:05;;;;;;;989.70;907.65;;;22.00;51.80;;;;;;4934494;28;20082;-84
2022/08/10 08:43:01;;;;;;;853.72;791.97;;;21.70;51.40;;;;;;4932730;28;20034;-84
2022/08/10 08:45:41;;;;;;;928.38;822.72;;;21.90;51.10;;;;;;4967785;28;20057;-84
2022/08/10 08:48:10;;;;;;;;;;;22.00;51.80;;;;;;4958513;28;20035;-84
2022/08/10 08:50:50;;;;;;;793.05;742.42;;;22.10;50.50;;;;;;4967745;28;19914;-84
2022/08/10 08:53:36;;;;;;;751.50;702.45;;;22.30;51.10;;;;;;4967102;28;20035;-84
2022/08/10 08:56:25;;;;;;;854.08;794.38;;;22.30;50.30;;;;;;4964801;28;20047;-83
2022/08/10 08:59:20;;;;;;;621.40;571.95;;;22.50;50.20;;;;;;4963972;28;20018;-83
2022/08/10 09:02:16;;;;;;;742.58;691.72;;;22.60;47.90;;;;;;4959237;28;20130;-84
2022/08/10 09:05:15;;;;;;;677.92;634.78;;;22.50;45.40;;;;;;4957654;28;20031;-84
2022/08/10 09:08:09;;;;;;;754.08;707.85;;;22.50;46.20;;;;;;4963652;28;20027;-83
2022/08/10 09:10:52;;;;;;;651.40;608.97;;;22.80;47.80;;;;;;4947724;28;20054;-82
2022/08/10 09:13:35;;;;;;;758.90;704.03;;;22.70;43.30;;;;;;4965693;28;20034;-83
2022/08/10 09:16:15;;;;;;;815.28;757.17;;;22.80;45.70;;;;;;4964945;28;20227;-83
2022/08/10 09:19:02;;;;;;;740.17;679.72;;;22.80;42.60;;;;;;4963828;28;20105;-83
2022/08/10 09:21:30;;;;;;;554.33;508.95;;;23.00;43.70;;;;;;4966893;28;20023;-83
2022/08/10 09:24:26;;;;;;;809.65;753.60;;;23.10;40.90;;;;;;4965289;28;20038;-83
2022/08/10 09:26:55;;;;;;;678.70;635.60;;;23.00;40.50;;;;;;4947616;28;20026;-83
2022/08/10 09:29:26;;;;;;;782.05;720.42;;;23.30;40.80;;;;;;4917944;28;20138;-83
2022/08/10 09:32:09;;;;;;;723.42;671.88;;;23.40;39.60;;;;;;4949370;28;20058;-83
2022/08/10 09:34:58;;;;;;;821.03;761.63;;;23.50;38.60;;;;;;4962604;28;20165;-83
2022/08/10 09:37:36;;;;;;;729.80;659.67;;;23.80;40.20;;;;;;4913639;28;20042;-83
2022/08/10 09:40:10;;;;;;;678.30;639.13;;;23.70;39.50;;;;;;4965774;28;20058;-81
2022/08/10 09:42:50;;;;;;;557.85;529.63;;;23.70;38.30;;;;;;4961531;28;20066;-82
2022/08/10 09:45:25;;;;;;;684.53;639.90;;;23.60;38.80;;;;;;4966250;28;20030;-83
2022/08/10 09:47:56;;;;;;;603.83;567.80;;;24.10;40.00;;;;;;4964696;28;20026;-85
2022/08/10 09:50:47;;;;;;;806.55;736.38;;;24.40;40.00;;;;;;4949170;28;20027;-82
2022/08/10 09:53:21;;;;;;;596.45;561.83;;;24.40;39.20;;;;;;4965158;28;20039;-82
2022/08/10 09:56:01;;;;;;;749.95;687.10;;;24.40;36.70;;;;;;4966304;28;20085;-83
2022/08/10 09:58:39;;;;;;;750.55;701.63;;;24.60;37.50;;;;;;4963475;28;20050;-83
2022/08/10 10:01:16;;;;;;;870.28;760.25;;;24.60;39.10;;;;;;4938323;28;20040;-83
2022/08/10 10:04:20;;;;;;;696.05;637.35;;;24.60;37.20;;;;;;4945893;29;20031;-83
2022/08/10 10:06:57;;;;;;;724.75;672.40;;;24.40;37.40;;;;;;4944920;29;20035;-83
2022/08/10 10:09:44;;;;;;;948.28;644.33;;;24.20;35.80;;;;;;4932759;29;20365;-83
2022/08/10 10:12:28;;;;;;;710.17;636.33;;;24.50;35.20;;;;;;4946643;29;20035;-83
2022/08/10 10:15:19;;;;;;;552.38;523.17;;;24.00;32.10;;;;;;4927747;29;20041;-83
2022/08/10 10:18:04;;;;;;;528.10;500.45;;;24.60;33.50;;;;;;4922687;29;20027;-83
2022/08/10 10:20:32;;;;;;;494.95;439.73;;;24.70;33.50;;;;;;4950798;28;20070;-82
2022/08/10 10:23:10;;;;;;;489.35;464.98;;;24.80;30.30;;;;;;4943081;29;20030;-82
2022/08/10 10:25:43;;;;;;;452.42;428.13;;;24.60;30.10;;;;;;4943628;29;20023;-85
2022/08/10 10:28:12;;;;;;;462.15;438.83;;;24.60;31.50;;;;;;4944105;28;20030;-86
2022/08/10 10:31:09;;;;;;;595.17;537.40;;;24.90;32.30;;;;;;4947829;28;20493;-85
2022/08/10 10:33:43;;;;;;;623.13;585.13;;;24.90;30.50;;;;;;4942025;28;20085;-84
2022/08/10 10:36:13;;;;;;;488.00;463.35;;;25.00;31.40;;;;;;4963454;28;20045;-84
2022/08/10 10:38:41;;;;;;;488.08;463.42;;;25.30;32.30;;;;;;4948274;28;20113;-84
2022/08/10 10:41:25;;;;;;;580.90;543.72;;;25.50;32.20;;;;;;4965943;28;20042;-83
2022/08/10 10:44:22;;;;;;;623.78;588.22;;;25.40;31.30;;;;;;4965561;28;20058;-83
2022/08/10 10:47:14;;;;;;;861.13;741.15;;;25.70;33.60;;;;;;4946571;28;20062;-84
2022/08/10 10:50:01;;;;;;;558.30;529.10;;;25.70;31.70;;;;;;4955587;28;20043;-83
2022/08/10 10:52:50;;;;;;;304.13;289.58;;;25.90;30.30;;;;;;4963931;28;20126;-84
2022/08/10 10:55:29;;;;;;;635.28;592.55;;;25.70;30.20;;;;;;4967097;28;20051;-81
2022/08/10 10:58:04;;;;;;;528.70;499.50;;;25.60;31.70;;;;;;4948969;28;20031;-86
2022/08/10 11:00:47;;;;;;;223.88;214.20;;;25.90;30.20;;;;;;4965105;28;20043;-86
2022/08/10 11:03:40;;;;;;;314.13;300.08;;;26.30;28.50;;;;;;4949077;29;20850;-85
2022/08/10 11:06:23;;;;;;;315.13;296.20;;;26.30;29.70;;;;;;4948593;29;20035;-86
2022/08/10 11:09:02;;;;;;;497.88;471.50;;;26.60;28.10;;;;;;4947696;29;20103;-85
2022/08/10 11:11:32;;;;;;;411.75;392.33;;;26.70;29.20;;;;;;4952058;29;20104;-85
2022/08/10 11:14:13;;;;;;;366.17;349.30;;;27.40;30.00;;;;;;4933454;29;20055;-85
2022/08/10 11:17:02;;;;;;;292.67;278.58;;;27.30;28.20;;;;;;4950495;29;20027;-85
2022/08/10 11:20:01;;;;;;;499.77;454.48;;;27.30;27.00;;;;;;4930921;29;20059;-84
2022/08/10 11:22:31;;;;;;;517.70;491.50;;;27.30;28.80;;;;;;4948672;29;20255;-85
2022/08/10 11:25:09;;;;;;;424.35;404.20;;;27.60;28.00;;;;;;4948484;29;20279;-86
2022/08/10 11:28:07;;;;;;;494.85;463.45;;;28.30;28.50;;;;;;4948359;29;20027;-85
2022/08/10 11:30:43;;;;;;;549.30;522.03;;;27.50;26.40;;;;;;4945682;28;20038;-85
2022/08/10 11:33:34;;;;;;;417.83;397.30;;;28.30;29.20;;;;;;4978251;28;20057;-85
2022/08/10 11:36:04;;;;;;;725.40;638.25;;;28.40;26.70;;;;;;4987038;28;20091;-85
2022/08/10 11:38:48;;;;;;;493.05;467.77;;;27.30;25.90;;;;;;4976996;28;20066;-85
2022/08/10 11:41:43;;;;;;;585.83;548.42;;;28.40;28.40;;;;;;4983566;28;20098;-85
2022/08/10 11:44:33;;;;;;;403.95;362.85;;;28.90;25.80;;;;;;4981813;28;20118;-85
2022/08/10 11:47:19;;;;;;;369.52;353.10;;;28.10;25.40;;;;;;4973709;28;20022;-85
2022/08/10 11:49:56;;;;;;;448.70;426.40;;;28.50;27.20;;;;;;4975470;28;20446;-85
2022/08/10 11:52:45;;;;;;;536.15;505.65;;;28.40;26.30;;;;;;4976960;28;20665;-86
2022/08/10 11:55:22;;;;;;;529.53;502.52;;;28.60;25.70;;;;;;4968526;28;20518;-86
2022/08/10 11:57:51;;;;;;;539.75;510.95;;;28.80;26.00;;;;;;4957344;28;20560;-86
2022/08/10 12:00:17;;;;;;;421.58;400.88;;;28.70;25.50;;;;;;4955956;28;20050;-86
2022/08/10 12:02:49;;;;;;;458.50;437.55;;;29.00;25.30;;;;;;4932279;29;20035;-86
2022/08/10 12:05:21;;;;;;;455.63;432.08;;;29.30;25.00;;;;;;4965000;28;20027;-88
2022/08/10 12:07:53;;;;;;;570.08;537.90;;;29.00;23.50;;;;;;4946140;29;20054;-86
2022/08/10 12:10:22;;;;;;;611.88;579.88;;;29.10;25.20;;;;;;4950004;29;20031;-86
2022/08/10 12:13:13;;;;;;;566.17;538.10;;;30.10;25.30;;;;;;4964740;28;20059;-87
2022/08/10 12:15:51;;;;;;;482.92;457.98;;;30.30;23.90;;;;;;4949188;29;20067;-86
2022/08/10 12:18:23;;;;;;;530.50;500.73;;;29.80;23.30;;;;;;4962940;28;20105;-86
2022/08/10 12:20:54;;;;;;;556.20;528.22;;;29.20;24.50;;;;;;4949693;29;20126;-87
2022/08/10 12:23:23;;;;;;;593.70;562.58;;;30.10;24.20;;;;;;4947801;29;20086;-86
2022/08/10 12:26:11;;;;;;;626.60;591.03;;;29.90;23.70;;;;;;4945723;29;20019;-86
2022/08/10 12:28:46;;;;;;;633.00;598.50;;;29.40;24.80;;;;;;4949553;29;20019;-87
2022/08/10 12:31:14;;;;;;;531.15;503.67;;;30.40;24.70;;;;;;4951118;28;20045;-86
2022/08/10 12:33:55;;;;;;;569.78;541.30;;;30.50;25.00;;;;;;4943441;28;20039;-84